Progress, Indiana
Current Conditions -  °F | °C
As of 7:53 PM on Wednesday 22 Oct 2014 (Local Time) from KMIE Reporting Station
Clear Clear  
Wind Chill: 42°   Ceiling: Unl
Heat Index: 45°   Visibility: 10mi
Dew Point: 40°   Wind: 6mph
Humidity: 82%   Direction: 90°E
Pressure: 30.28"   Gusts: NA
Location:  40.1286°N, 85.3767°W
Report Text: KMIE 222353Z 09005KT 10SM CLR 07/04 A3028 RMK AO2 SLP255 T00720044 10139 20072 53005
Loading
Personal Weather Stations






























Interactive Weather Map
Tropical Storm Tracking
New forecast layout! Learn more

10-Day Weather Forecast

Advertisements
Track Severe Weather on mobile